sensor_id;sensor_type;location;lat;lon;timestamp;pressure;altitude;pressure_sealevel;temperature;humidity
31005;BME280;17676;52.254;4.490;2022-08-11T20:19:54;101936.13;;;24.92;100.00
31005;BME280;17676;52.254;4.490;2022-08-11T20:22:41;101941.97;;;25.11;100.00
31005;BME280;17676;52.254;4.490;2022-08-11T20:25:27;101944.16;;;25.24;100.00
31005;BME280;17676;52.254;4.490;2022-08-11T20:28:12;101943.06;;;25.30;100.00
31005;BME280;17676;52.254;4.490;2022-08-11T20:30:56;101930.88;;;25.31;100.00
31005;BME280;17676;52.254;4.490;2022-08-11T20:33:41;101940.53;;;25.43;100.00
31005;BME280;17676;52.254;4.490;2022-08-11T20:36:29;101940.31;;;25.35;100.00
31005;BME280;17676;52.254;4.490;2022-08-11T20:39:14;101944.44;;;25.37;100.00
31005;BME280;17676;52.254;4.490;2022-08-11T20:42:00;101946.66;;;25.35;100.00
31005;BME280;17676;52.254;4.490;2022-08-11T20:44:47;101947.75;;;25.39;100.00
31005;BME280;17676;52.254;4.490;2022-08-11T20:47:34;101947.75;;;25.39;100.00
31005;BME280;17676;52.254;4.490;2022-08-11T20:50:23;101949.72;;;25.29;100.00
31005;BME280;17676;52.254;4.490;2022-08-11T20:53:10;101948.06;;;25.33;100.00
31005;BME280;17676;52.254;4.490;2022-08-11T20:55:57;101960.22;;;25.17;100.00
31005;BME280;17676;52.254;4.490;2022-08-11T20:58:43;101950.25;;;25.21;100.00
31005;BME280;17676;52.254;4.490;2022-08-11T21:01:28;101955.78;;;25.21;100.00
31005;BME280;17676;52.254;4.490;2022-08-11T21:04:13;101943.88;;;25.25;100.00
31005;BME280;17676;52.254;4.490;2022-08-11T21:07:00;101939.72;;;25.08;100.00
31005;BME280;17676;52.254;4.490;2022-08-11T21:09:45;101938.63;;;25.04;100.00
31005;BME280;17676;52.254;4.490;2022-08-11T21:12:31;101946.09;;;24.98;100.00
31005;BME280;17676;52.254;4.490;2022-08-11T21:15:18;101941.66;;;25.02;100.00
31005;BME280;17676;52.254;4.490;2022-08-11T21:18:03;101936.41;;;24.96;100.00
31005;BME280;17676;52.254;4.490;2022-08-11T21:20:49;101940.84;;;24.97;100.00
31005;BME280;17676;52.254;4.490;2022-08-11T21:23:34;101934.75;;;24.95;100.00
31005;BME280;17676;52.254;4.490;2022-08-11T21:26:21;101933.34;;;24.87;100.00
31005;BME280;17676;52.254;4.490;2022-08-11T21:29:06;101935.84;;;24.89;100.00
31005;BME280;17676;52.254;4.490;2022-08-11T21:31:53;101936.97;;;24.83;100.00
31005;BME280;17676;52.254;4.490;2022-08-11T21:34:38;101948.84;;;24.83;100.00
31005;BME280;17676;52.254;4.490;2022-08-11T21:37:24;101924.75;;;24.69;100.00
31005;BME280;17676;52.254;4.490;2022-08-11T21:40:09;101938.59;;;24.74;100.00
31005;BME280;17676;52.254;4.490;2022-08-11T21:42:55;101939.16;;;24.71;100.00
31005;BME280;17676;52.254;4.490;2022-08-11T21:45:42;101950.78;;;24.73;100.00
31005;BME280;17676;52.254;4.490;2022-08-11T21:48:26;101944.69;;;24.71;100.00
31005;BME280;17676;52.254;4.490;2022-08-11T21:51:11;101930.81;;;24.66;100.00
31005;BME280;17676;52.254;4.490;2022-08-11T21:53:56;101931.41;;;24.73;100.00
31005;BME280;17676;52.254;4.490;2022-08-11T21:56:49;101933.31;;;24.67;100.00
31005;BME280;17676;52.254;4.490;2022-08-11T21:59:53;101937.22;;;24.66;100.00
31005;BME280;17676;52.254;4.490;2022-08-11T22:02:38;101943.81;;;24.60;100.00
31005;BME280;17676;52.254;4.490;2022-08-11T22:05:24;101939.63;;;24.48;100.00
31005;BME280;17676;52.254;4.490;2022-08-11T22:08:09;101951.28;;;24.55;100.00
31005;BME280;17676;52.254;4.490;2022-08-11T22:10:54;101950.44;;;24.59;100.00
31005;BME280;17676;52.254;4.490;2022-08-11T22:13:39;101936.59;;;24.44;100.00
31005;BME280;17676;52.254;4.490;2022-08-11T22:16:24;101945.19;;;24.48;100.00
31005;BME280;17676;52.254;4.490;2022-08-11T22:19:08;101946.25;;;24.32;100.00
31005;BME280;17676;52.254;4.490;2022-08-11T22:21:53;101924.34;;;24.25;100.00
31005;BME280;17676;52.254;4.490;2022-08-11T22:24:38;101939.59;;;24.28;100.00
31005;BME280;17676;52.254;4.490;2022-08-11T22:27:23;101941.81;;;24.26;100.00
31005;BME280;17676;52.254;4.490;2022-08-11T22:30:09;101945.63;;;24.15;100.00
31005;BME280;17676;52.254;4.490;2022-08-11T22:32:56;101941.22;;;24.19;100.00
31005;BME280;17676;52.254;4.490;2022-08-11T22:35:41;101940.91;;;24.15;100.00
31005;BME280;17676;52.254;4.490;2022-08-11T22:38:26;101942.25;;;23.98;100.00
31005;BME280;17676;52.254;4.490;2022-08-11T22:41:11;101945.56;;;24.05;100.00
31005;BME280;17676;52.254;4.490;2022-08-11T22:43:56;101951.69;;;24.02;100.00
31005;BME280;17676;52.254;4.490;2022-08-11T22:46:42;101940.59;;;24.02;100.00
31005;BME280;17676;52.254;4.490;2022-08-11T22:49:29;101948.06;;;24.06;100.00
31005;BME280;17676;52.254;4.490;2022-08-11T22:52:14;101951.84;;;23.90;100.00
31005;BME280;17676;52.254;4.490;2022-08-11T22:55:01;101950.47;;;23.88;100.00
31005;BME280;17676;52.254;4.490;2022-08-11T22:57:46;101942.41;;;23.81;100.00
31005;BME280;17676;52.254;4.490;2022-08-11T23:00:31;101957.88;;;23.77;100.00
31005;BME280;17676;52.254;4.490;2022-08-11T23:03:16;101949.81;;;23.71;100.00
31005;BME280;17676;52.254;4.490;2022-08-11T23:06:02;101953.63;;;23.60;100.00
31005;BME280;17676;52.254;4.490;2022-08-11T23:08:47;101947.81;;;23.56;100.00
31005;BME280;17676;52.254;4.490;2022-08-11T23:11:31;101956.88;;;23.52;100.00
31005;BME280;17676;52.254;4.490;2022-08-11T23:14:19;101938.13;;;23.54;100.00
31005;BME280;17676;52.254;4.490;2022-08-11T23:17:06;101952.50;;;23.61;100.00
31005;BME280;17676;52.254;4.490;2022-08-11T23:19:52;101953.56;;;23.50;100.00
31005;BME280;17676;52.254;4.490;2022-08-11T23:22:38;101953.00;;;23.52;100.00
31005;BME280;17676;52.254;4.490;2022-08-11T23:25:23;101940.28;;;23.47;100.00
31005;BME280;17676;52.254;4.490;2022-08-11T23:28:08;101943.53;;;23.38;100.00
31005;BME280;17676;52.254;4.490;2022-08-11T23:30:56;101950.22;;;23.48;100.00
31005;BME280;17676;52.254;4.490;2022-08-11T23:33:42;101944.94;;;23.41;100.00
31005;BME280;17676;52.254;4.490;2022-08-11T23:36:27;101937.09;;;23.28;100.00
31005;BME280;17676;52.254;4.490;2022-08-11T23:39:12;101961.13;;;23.27;100.00
31005;BME280;17676;52.254;4.490;2022-08-11T23:41:56;101954.78;;;23.27;100.00
31005;BME280;17676;52.254;4.490;2022-08-11T23:44:40;101948.41;;;23.26;100.00
31005;BME280;17676;52.254;4.490;2022-08-11T23:47:25;101943.41;;;23.23;100.00
31005;BME280;17676;52.254;4.490;2022-08-11T23:50:10;101950.59;;;23.24;100.00
31005;BME280;17676;52.254;4.490;2022-08-11T23:52:57;101959.72;;;23.20;100.00
31005;BME280;17676;52.254;4.490;2022-08-11T23:55:42;101945.81;;;23.15;100.00
31005;BME280;17676;52.254;4.490;2022-08-11T23:58:27;101948.75;;;23.03;100.00
